• Join FlightAware (Why Join?)
  • Login
  • US Flag 
11:44AM EDT


 

Airport Tracker/Info


-or-


 

Live Flight TrackerFlight Track Log ✈ N821WW ✈ 16-Jul-2013 ✈ KHBR - KAPA

Flight Track Log - Related Links

Times and Time Zones

All times are in EDT time to prevent confusion due to time zone crossing. See the N821WW flight status page for this flight to view local times or setup timezone preferences in your user account.

Time Position Orientation Groundspeed Altitude Reporting Facility
EDT Latitude Longitude Course Direction KTS MPH feet Rate Location/Type
01:31PM 34.9761 -99.0606 321° Northwest 94 108 2,000  Level Fort Worth Center
01:32PM 34.9469 -99.0600 179° South 91 105 2,700 600 Climbing Fort Worth Center
01:33PM 34.9197 -99.0672 192° South 94 108 3,300 540 Climbing Fort Worth Center
01:34PM 34.8967 -99.0742 194° South 87 100 3,800 360 Climbing Fort Worth Center
01:36PM 34.8964 -99.0969 269° West 112 129 4,100 60 Climbing Fort Worth Center
01:37PM 35.1386 -99.2052 321° Northwest  Level FlightAware Approximate
01:37PM 34.9250 -99.1356 312° West 124 143 4,000  Level Fort Worth Center
01:38PM 34.9539 -99.1692 316° Northwest 136 157 4,200 300 Climbing Fort Worth Center
01:39PM 34.9806 -99.1975 319° Northwest 136 157 4,600 360 Climbing Fort Worth Center
01:40PM 35.0092 -99.2286 318° Northwest 136 157 5,000 180 Climbing Fort Worth Center
01:41PM 35.0400 -99.2544 326° Northwest 136 157 5,000 240 Level Fort Worth Center
01:42PM 35.0667 -99.2856 316° Northwest 136 157 5,500 420 Climbing Fort Worth Center
01:43PM 35.0936 -99.3142 319° Northwest 136 157 5,900 360 Climbing Fort Worth Center
01:44PM 35.1139 -99.3500 305° West 131 151 6,300 420 Climbing Fort Worth Center
01:45PM 35.1278 -99.3911 292° West 125 144 6,800 540 Climbing Fort Worth Center
01:46PM 35.1522 -99.4219 314° West 125 144 7,400 480 Climbing Fort Worth Center
01:47PM 35.1808 -99.4558 316° Northwest 131 151 7,800 300 Climbing Fort Worth Center
01:48PM 35.2097 -99.4869 319° Northwest 136 157 8,100 300 Climbing Fort Worth Center
01:49PM 35.2403 -99.5183 320° Northwest 141 162 8,500 360 Climbing Fort Worth Center
01:50PM 35.2711 -99.5494 321° Northwest 147 169 8,900 360 Climbing Fort Worth Center
01:51PM 35.2997 -99.5808 318° Northwest 147 169 9,300 300 Climbing Fort Worth Center
01:52PM 35.3350 -99.6194 318° Northwest 139 160 9,700 300 Climbing Albuquerque Center
01:53PM 35.3628 -99.6492 319° Northwest 135 155 10,100 120 Climbing Albuquerque Center
01:54PM 35.3914 -99.6806 318° Northwest 136 157 10,000 -60 Descending Albuquerque Center
01:55PM 35.4228 -99.7139 319° Northwest 143 165 10,000  Level Albuquerque Center
01:56PM 35.4603 -99.7536 319° Northwest 148 170 10,000  Level Albuquerque Center
01:57PM 35.4914 -99.7864 319° Northwest 146 168 10,000  Level Albuquerque Center
01:58PM 35.5222 -99.8192 319° Northwest 146 168 10,000  Level Albuquerque Center
01:59PM 35.5525 -99.8519 319° Northwest 146 168 10,000  Level Albuquerque Center
02:00PM 35.5822 -99.8847 318° Northwest 144 166 10,000  Level Albuquerque Center
02:01PM 35.6117 -99.9164 319° Northwest 142 163 10,000  Level Albuquerque Center
02:02PM 35.6419 -99.9492 319° Northwest 142 163 10,000  Level Albuquerque Center
02:03PM 35.6728 -99.9836 318° Northwest 145 167 10,000  Level Albuquerque Center
02:04PM 35.7131 -100.0256 320° Northwest 152 175 10,000  Level Albuquerque Center
02:05PM 35.7442 -100.0597 318° Northwest 151 174 10,000  Level Albuquerque Center
02:06PM 35.7769 -100.0944 319° Northwest 153 176 10,000  Level Albuquerque Center
02:07PM 35.8083 -100.1286 319° Northwest 152 175 10,000  Level Albuquerque Center
02:08PM 35.8394 -100.1628 318° Northwest 150 173 10,000  Level Albuquerque Center
02:09PM 35.8697 -100.1950 319° Northwest 145 167 10,000  Level Albuquerque Center
02:10PM 35.9011 -100.2303 318° Northwest 149 171 10,000  Level Albuquerque Center
02:11PM 35.9311 -100.2611 320° Northwest 145 167 10,000  Level Albuquerque Center
02:12PM 35.9589 -100.2939 316° Northwest 143 165 10,000  Level Albuquerque Center
02:14PM 35.9961 -100.3339 319° Northwest 144 166 10,000  Level Kansas City Center
02:15PM 36.0258 -100.3675 318° Northwest 144 166 10,000  Level Kansas City Center
02:16PM 36.0561 -100.4006 319° Northwest 145 167 10,000  Level Kansas City Center
02:17PM 36.0889 -100.4356 319° Northwest 151 174 10,000  Level Albuquerque Center
02:18PM 36.1211 -100.4700 319° Northwest 152 175 10,000  Level Albuquerque Center
02:19PM 36.1517 -100.5050 317° Northwest 151 174 10,000  Level Albuquerque Center
02:20PM 36.1833 -100.5386 319° Northwest 150 173 10,000  Level Albuquerque Center
02:21PM 36.2231 -100.5819 319° Northwest 156 180 10,000  Level Kansas City Center
02:22PM 36.2553 -100.6167 319° Northwest 153 176 10,000  Level Kansas City Center
02:23PM 36.2861 -100.6519 317° Northwest 152 175 10,000  Level Kansas City Center
02:24PM 36.3178 -100.6869 318° Northwest 152 175 10,000  Level Kansas City Center
02:25PM 36.3542 -100.7281 318° Northwest 156 180 10,000  Level Kansas City Center
02:26PM 36.3864 -100.7644 318° Northwest 158 182 10,000  Level Kansas City Center
02:27PM 36.4183 -100.7992 319° Northwest 155 178 10,000  Level Kansas City Center
02:28PM 36.4539 -100.8386 318° Northwest 152 175 10,000  Level Kansas City Center
02:29PM 36.4842 -100.8722 318° Northwest 152 175 10,000  Level Kansas City Center
02:30PM 36.5181 -100.9108 318° Northwest 149 171 10,000  Level Kansas City Center
02:31PM 36.5486 -100.9425 320° Northwest 149 171 10,000  Level Kansas City Center
02:32PM 36.5778 -100.9767 317° Northwest 150 173 10,000  Level Kansas City Center
02:33PM 36.6136 -101.0156 319° Northwest 152 175 10,000  Level Kansas City Center
02:34PM 36.6436 -101.0511 316° Northwest 154 177 10,000  Level Kansas City Center
02:35PM 36.6792 -101.0894 319° Northwest 153 176 10,000  Level Kansas City Center
02:36PM 36.7078 -101.1222 317° Northwest 149 171 10,000  Level Kansas City Center
02:37PM 36.7425 -101.1606 319° Northwest 149 171 10,000  Level Kansas City Center
02:38PM 36.7719 -101.1947 317° Northwest 150 173 10,000  Level Kansas City Center
02:39PM 36.8064 -101.2311 320° Northwest 147 169 10,000  Level Kansas City Center
02:40PM 36.8356 -101.2653 317° Northwest 148 170 10,000  Level Kansas City Center
02:41PM 36.8694 -101.3039 318° Northwest 148 170 10,000  Level Kansas City Center
02:42PM 36.9003 -101.3375 319° Northwest 151 174 10,000  Level Kansas City Center
02:44PM 36.9344 -101.3756 318° Northwest 149 171 10,000  Level Kansas City Center
02:45PM 36.9628 -101.4072 318° Northwest 145 167 10,000  Level Kansas City Center
02:46PM 36.9950 -101.4444 317° Northwest 140 161 10,000  Level Kansas City Center
02:47PM 37.0244 -101.4786 317° Northwest 146 168 10,000  Level Kansas City Center
02:48PM 37.0533 -101.5108 318° Northwest 146 168 10,000  Level Kansas City Center
02:49PM 37.0864 -101.5492 317° Northwest 144 166 10,000  Level Kansas City Center
02:50PM 37.1142 -101.5803 318° Northwest 142 163 10,000  Level Kansas City Center
02:51PM 37.1478 -101.6175 319° Northwest 143 165 10,000  Level Kansas City Center
02:52PM 37.1767 -101.6517 317° Northwest 147 169 10,000  Level Kansas City Center
02:53PM 37.2100 -101.6892 318° Northwest 146 168 10,000  Level Kansas City Center
02:54PM 37.2397 -101.7231 318° Northwest 147 169 10,000  Level Kansas City Center
02:55PM 37.2733 -101.7606 318° Northwest 146 168 10,000  Level Kansas City Center
02:56PM 37.3014 -101.7933 317° Northwest 146 168 10,000  Level Kansas City Center
02:57PM 37.3344 -101.8314 318° Northwest 145 167 10,000  Level Kansas City Center
02:58PM 37.3628 -101.8644 317° Northwest 144 166 10,000  Level Kansas City Center
02:59PM 37.3964 -101.9031 318° Northwest 145 167 10,000  Level Kansas City Center
03:00PM 37.4269 -101.9375 318° Northwest 149 171 10,000  Level Kansas City Center
03:01PM 37.4564 -101.9717 317° Northwest 150 173 10,000  Level Kansas City Center
03:02PM 37.4903 -102.0108 317° Northwest 149 171 10,000  Level Kansas City Center
03:03PM 37.5183 -102.0436 317° Northwest 147 169 10,000  Level Kansas City Center
03:04PM 37.5511 -102.0808 318° Northwest 144 166 10,000  Level Kansas City Center
03:05PM 37.5786 -102.1128 317° Northwest 142 163 10,000  Level Kansas City Center
03:06PM 37.6108 -102.1494 318° Northwest 141 162 10,000  Level Kansas City Center
03:07PM 37.6372 -102.1817 316° Northwest 140 161 10,000  Level Kansas City Center
03:08PM 37.6689 -102.2167 319° Northwest 137 158 10,000  Level Kansas City Center
03:09PM 37.6953 -102.2481 317° Northwest 137 158 10,000  Level Kansas City Center
03:10PM 37.7272 -102.2853 317° Northwest 138 159 10,000  Level Kansas City Center
03:11PM 37.7544 -102.3161 318° Northwest 138 159 10,000  Level Kansas City Center
03:12PM 37.7864 -102.3522 318° Northwest 138 159 10,000  Level Kansas City Center
03:14PM 37.8119 -102.3844 315° West 137 158 10,000  Level Kansas City Center
03:15PM 37.8378 -102.4161 316° Northwest 136 157 10,000  Level Kansas City Center
03:16PM 37.8706 -102.4522 319° Northwest 137 158 10,000  Level Kansas City Center
03:17PM 37.8978 -102.4833 318° Northwest 137 158 10,000  Level Kansas City Center
03:18PM 37.9281 -102.5200 316° Northwest 136 157 10,000  Level Kansas City Center
03:19PM 37.9556 -102.5511 318° Northwest 137 158 10,000  Level Kansas City Center
03:20PM 37.9861 -102.5878 317° Northwest 136 157 10,000  Level Kansas City Center
03:21PM 38.0125 -102.6197 316° Northwest 136 157 10,000  Level Kansas City Center
03:22PM 38.0467 -102.6594 318° Northwest 140 161 10,000  Level Denver Center
03:23PM 38.0786 -102.6964 318° Northwest 139 160 10,000  Level Denver Center
03:24PM 38.1050 -102.7283 316° Northwest 138 159 10,000  Level Denver Center
03:25PM 38.1358 -102.7650 317° Northwest 137 158 10,000  Level Denver Center
03:26PM 38.1622 -102.7958 317° Northwest 135 155 10,000  Level Denver Center
03:27PM 38.1928 -102.8325 317° Northwest 134 154 10,000  Level Denver Center
03:28PM 38.2194 -102.8636 317° Northwest 136 157 10,000  Level Denver Center
03:29PM 38.2506 -102.9006 317° Northwest 137 158 10,000  Level Denver Center
03:30PM 38.2769 -102.9328 316° Northwest 138 159 10,000  Level Denver Center
03:31PM 38.3097 -102.9708 318° Northwest 141 162 10,000  Level Denver Center
03:32PM 38.3358 -103.0011 318° Northwest 138 159 10,000  Level Denver Center
03:33PM 38.3614 -103.0339 315° West 136 157 10,000  Level Denver Center
03:34PM 38.3931 -103.0717 317° Northwest 137 158 10,000  Level Denver Center
03:35PM 38.4214 -103.1047 318° Northwest 140 161 10,000  Level Denver Center
03:36PM 38.4528 -103.1414 318° Northwest 140 161 10,000  Level Denver Center
03:37PM 38.4797 -103.1747 316° Northwest 139 160 10,000  Level Denver Center
03:38PM 38.5106 -103.2119 317° Northwest 138 159 10,100  Climbing Denver Center
03:39PM 38.5372 -103.2447 316° Northwest 139 160 10,000 -60 Descending Denver Center
03:41PM 38.5684 -103.2795 319° Northwest  Level FlightAware Approximate
03:42PM 38.5953 -103.3144 319° Northwest 139 160 10,000  Level Denver Center
03:43PM 38.6267 -103.3519 317° Northwest 138 159 10,000  Level Denver Center
03:44PM 38.6550 -103.3842 318° Northwest 140 161 10,000  Level Denver Center
03:45PM 38.6847 -103.4219 315° West 138 159 10,000  Level Denver Center
03:46PM 38.7111 -103.4536 317° Northwest 137 158 10,000  Level Denver Center
03:47PM 38.7378 -103.4861 316° Northwest 137 158 10,000  Level Denver Center
03:48PM 38.7681 -103.5231 316° Northwest 136 157 10,000  Level Denver Center
03:49PM 38.7950 -103.5556 317° Northwest 137 158 10,000  Level Denver Center
03:50PM 38.8269 -103.5933 317° Northwest 138 159 10,000  Level Denver Center
03:51PM 38.8536 -103.6256 317° Northwest 138 159 10,000  Level Denver Center
03:52PM 38.8814 -103.6603 316° Northwest 138 159 10,000  Level Denver Center
03:53PM 38.9086 -103.6942 316° Northwest 137 158 10,000  Level Denver Center
03:54PM 38.9442 -103.7353 318° Northwest 142 163 10,000  Level Denver Center
03:55PM 38.9722 -103.7694 317° Northwest 142 163 10,000  Level Denver Center
03:56PM 39.0000 -103.8039 316° Northwest 139 160 10,000  Level Denver Center
03:57PM 39.0269 -103.8392 315° West 139 160 10,000  Level Denver Center
03:58PM 39.0544 -103.8711 318° Northwest 134 154 10,000  Level Denver Center
03:59PM 39.0811 -103.9050 315° West 135 155 10,000  Level Denver Center
04:00PM 39.1144 -103.9456 317° Northwest 136 157 10,000  Level Denver Center
04:01PM 39.1408 -103.9772 317° Northwest 132 152 10,000  Level Denver Center
04:02PM 39.1669 -104.0092 317° Northwest 130 150 10,000  Level Denver Center
04:03PM 39.1956 -104.0475 314° West 143 165 10,000  Level Denver Center
04:04PM 39.2236 -104.0811 317° Northwest 141 162 10,000  Level Denver Center
04:05PM 39.2550 -104.1192 317° Northwest 142 163 10,000  Level Denver Center
04:06PM 39.2731 -104.1658 297° West 136 157 10,000  Level Denver Center
04:07PM 39.2914 -104.2075 300° West 133 153 10,000  Level Denver Center
04:08PM 39.3111 -104.2503 301° West 129 148 10,000  Level Denver Center
04:09PM 39.3281 -104.2914 298° West 131 151 10,000  Level Denver Center
04:10PM 39.3469 -104.3336 300° West 127 146 10,000  Level Denver Center
04:11PM 39.3647 -104.3739 300° West 129 148 10,000  Level Denver Center
04:13PM 39.3819 -104.4147 299° West 130 150 10,000  Level Denver Center
04:14PM 39.4011 -104.4578 300° West 129 148 10,000  Level Denver Center
04:15PM 39.4186 -104.4983 299° West 128 147 10,000 -300 Level Denver Center
04:16PM 39.4392 -104.5431 301° West 135 155 9,500 -540 Descending Denver Center
04:17PM 39.4578 -104.5875 298° West 140 161 9,000 -480 Descending Denver Center
04:18PM 39.4758 -104.6317 298° West 139 160 8,600 -540 Descending Denver Center
04:19PM 39.4942 -104.6731 300° West 127 146 8,000 -300 Descending Denver Center
04:20PM 39.5103 -104.7111 299° West 123 142 8,000 -120 Level Denver Center
04:21PM 39.5300 -104.7575 299° West 138 159 7,800 -420 Descending Denver Center
04:22PM 39.5569 -104.7925 315° West 150 173 7,200 -540 Descending Denver Center
04:23PM 39.5933 -104.8039 346° North 138 159 6,700 -540 Descending Denver Center
04:24PM 39.5942 -104.8497 271° West 114 131 6,200 -480 Descending Denver Center
04:25PM 39.5789 -104.8511 184° South 73 84 5,800 -420 Descending Denver Center
04:27PM 39.5701 -104.8493 180° South  Level Estimated